createdAt,value
2023-01-19T00:00:17.195Z,367
2023-01-19T00:01:16.439Z,375
2023-01-19T00:02:16.226Z,374
2023-01-19T00:03:16.474Z,372
2023-01-19T00:04:16.771Z,376
2023-01-19T00:05:16.764Z,373
2023-01-19T00:06:16.503Z,376
2023-01-19T00:07:16.473Z,369
2023-01-19T00:08:16.356Z,377
2023-01-19T00:09:16.204Z,376
2023-01-19T00:10:16.931Z,373
2023-01-19T00:11:16.695Z,372
2023-01-19T00:12:16.209Z,376
2023-01-19T00:13:16.044Z,371
2023-01-19T00:14:16.612Z,376
2023-01-19T00:15:16.546Z,374
2023-01-19T00:16:16.665Z,378
2023-01-19T00:17:16.555Z,376
2023-01-19T00:18:16.100Z,375
2023-01-19T00:19:16.463Z,366
2023-01-19T00:20:16.479Z,368
2023-01-19T00:21:16.526Z,372
2023-01-19T00:22:16.301Z,371
2023-01-19T00:23:16.235Z,366
2023-01-19T00:24:16.665Z,365
2023-01-19T00:25:16.348Z,361
2023-01-19T00:26:16.388Z,372
2023-01-19T00:27:16.437Z,385
2023-01-19T00:28:16.399Z,377
2023-01-19T00:29:16.264Z,371
2023-01-19T00:30:16.499Z,372
2023-01-19T00:31:16.169Z,362
2023-01-19T00:32:16.046Z,352
2023-01-19T00:33:16.595Z,360
2023-01-19T00:34:16.247Z,372
2023-01-19T00:35:16.208Z,374
2023-01-19T00:36:16.333Z,377
2023-01-19T00:37:16.258Z,370
2023-01-19T00:38:16.528Z,371
2023-01-19T00:39:16.395Z,373
2023-01-19T00:40:16.718Z,366
2023-01-19T00:41:16.137Z,375
2023-01-19T00:42:16.731Z,374
2023-01-19T00:43:16.252Z,371
2023-01-19T00:44:16.533Z,381
2023-01-19T00:45:16.746Z,357
2023-01-19T00:46:16.412Z,363
2023-01-19T00:47:16.218Z,372
2023-01-19T00:48:16.006Z,357
2023-01-19T00:49:16.146Z,362
2023-01-19T00:50:16.954Z,366
2023-01-19T00:51:16.324Z,371
2023-01-19T00:52:15.955Z,366
2023-01-19T00:53:16.530Z,360
2023-01-19T00:54:16.153Z,363
2023-01-19T00:55:16.455Z,362
2023-01-19T00:57:16.290Z,366
2023-01-19T00:58:16.001Z,380
2023-01-19T00:59:16.614Z,376
2023-01-19T01:00:16.883Z,371
2023-01-19T01:01:18.279Z,369
2023-01-19T01:03:16.559Z,372
2023-01-19T01:05:16.256Z,373
2023-01-19T01:06:16.326Z,364
2023-01-19T01:07:16.244Z,357
2023-01-19T01:08:16.011Z,368
2023-01-19T01:10:16.345Z,352
2023-01-19T01:11:15.892Z,356
2023-01-19T01:12:16.317Z,366
2023-01-19T01:13:21.218Z,371
2023-01-19T01:14:16.116Z,369
2023-01-19T01:16:16.497Z,360
2023-01-19T01:17:16.037Z,353
2023-01-19T01:18:16.556Z,357
2023-01-19T01:19:16.608Z,360
2023-01-19T01:20:16.227Z,371
2023-01-19T01:23:16.109Z,383
2023-01-19T01:24:16.378Z,376
2023-01-19T01:25:16.262Z,368
2023-01-19T01:26:16.749Z,372
2023-01-19T01:27:16.465Z,378
2023-01-19T01:29:16.420Z,376
2023-01-19T01:30:16.561Z,373
2023-01-19T01:31:16.594Z,376
2023-01-19T01:32:16.751Z,367
2023-01-19T01:33:39.791Z,361
2023-01-19T01:34:16.517Z,368
2023-01-19T01:35:16.503Z,375
2023-01-19T01:36:16.575Z,367
2023-01-19T01:37:16.472Z,358
2023-01-19T01:38:16.692Z,360
2023-01-19T01:39:17.125Z,353
2023-01-19T01:40:16.719Z,360
2023-01-19T01:41:16.384Z,364
2023-01-19T01:42:16.255Z,368
2023-01-19T01:43:16.437Z,376
2023-01-19T01:44:16.134Z,373
2023-01-19T01:45:16.787Z,370
2023-01-19T01:46:16.740Z,367
2023-01-19T01:47:16.459Z,370
2023-01-19T01:48:15.970Z,368
2023-01-19T01:49:16.578Z,372
2023-01-19T01:50:16.214Z,360
2023-01-19T01:51:15.862Z,362
2023-01-19T01:52:16.228Z,368
2023-01-19T01:53:16.437Z,362
2023-01-19T01:54:16.002Z,369
2023-01-19T01:55:16.621Z,372
2023-01-19T01:56:15.851Z,376
2023-01-19T01:57:16.260Z,367
2023-01-19T01:59:15.962Z,375
2023-01-19T02:00:16.680Z,369
2023-01-19T02:01:16.304Z,368
2023-01-19T02:02:15.969Z,362
2023-01-19T02:03:16.536Z,359
2023-01-19T02:04:16.157Z,366
2023-01-19T02:05:16.204Z,365
2023-01-19T02:06:15.967Z,358
2023-01-19T02:07:16.433Z,354
2023-01-19T02:08:15.785Z,345
2023-01-19T02:09:16.456Z,353
2023-01-19T02:10:15.952Z,365
2023-01-19T02:11:16.381Z,371
2023-01-19T02:12:15.959Z,370
2023-01-19T02:13:16.683Z,371
2023-01-19T02:14:16.424Z,362
2023-01-19T02:15:16.461Z,364
2023-01-19T02:16:16.133Z,368
2023-01-19T02:17:15.920Z,354
2023-01-19T02:18:16.250Z,352
2023-01-19T02:20:16.512Z,367
2023-01-19T02:21:16.099Z,381
2023-01-19T02:22:16.018Z,372
2023-01-19T02:23:16.348Z,367
2023-01-19T02:24:15.967Z,371
2023-01-19T02:25:16.647Z,365
2023-01-19T02:26:16.366Z,359
2023-01-19T02:27:15.872Z,362
2023-01-19T02:28:16.493Z,373
2023-01-19T02:29:16.196Z,371
2023-01-19T02:30:16.471Z,366
2023-01-19T02:31:16.008Z,365
2023-01-19T02:33:15.951Z,373
2023-01-19T02:34:16.256Z,370
2023-01-19T02:35:16.657Z,362
2023-01-19T02:38:16.693Z,361
2023-01-19T02:39:16.463Z,357
2023-01-19T02:40:16.177Z,365
2023-01-19T02:41:16.087Z,376
2023-01-19T02:42:16.785Z,373
2023-01-19T02:43:16.131Z,368
2023-01-19T02:44:16.438Z,372
2023-01-19T02:45:16.369Z,374
2023-01-19T02:46:16.119Z,364
2023-01-19T02:47:15.918Z,374
2023-01-19T02:48:16.464Z,364
2023-01-19T02:49:16.148Z,367
2023-01-19T02:51:16.394Z,369
2023-01-19T02:52:16.109Z,371
2023-01-19T02:53:16.220Z,363
2023-01-19T02:54:16.329Z,360
2023-01-19T02:55:16.137Z,359
2023-01-19T02:56:16.232Z,361
2023-01-19T02:57:16.335Z,362
2023-01-19T02:58:16.208Z,361
2023-01-19T02:59:16.033Z,363
2023-01-19T03:00:16.609Z,369
2023-01-19T03:01:16.701Z,367
2023-01-19T03:02:16.410Z,374
2023-01-19T03:03:16.412Z,379
2023-01-19T03:04:16.192Z,374
2023-01-19T03:05:15.998Z,370
2023-01-19T03:06:16.377Z,375
2023-01-19T03:07:15.975Z,376
2023-01-19T03:08:16.335Z,378
2023-01-19T03:09:15.954Z,374
2023-01-19T03:10:16.467Z,370
2023-01-19T03:11:16.254Z,371
2023-01-19T03:12:16.200Z,372
2023-01-19T03:13:16.184Z,369
2023-01-19T03:15:16.510Z,364
2023-01-19T03:16:16.320Z,367
2023-01-19T03:17:16.035Z,370
2023-01-19T03:18:16.130Z,372
2023-01-19T03:19:16.460Z,370
2023-01-19T03:20:16.347Z,381
2023-01-19T03:21:16.084Z,374
2023-01-19T03:22:16.445Z,369
2023-01-19T03:24:16.452Z,365
2023-01-19T03:25:16.383Z,368
2023-01-19T03:26:16.141Z,370
2023-01-19T03:27:16.710Z,365
2023-01-19T03:29:16.351Z,364
2023-01-19T03:30:16.276Z,373
2023-01-19T03:31:16.199Z,371
2023-01-19T03:32:16.429Z,365
2023-01-19T03:33:16.606Z,363
2023-01-19T03:34:16.574Z,367
2023-01-19T03:35:16.213Z,369
2023-01-19T03:36:16.609Z,361
2023-01-19T03:37:16.637Z,355
2023-01-19T03:38:16.215Z,364
2023-01-19T03:39:16.158Z,360
2023-01-19T03:40:16.833Z,363
2023-01-19T03:42:16.400Z,358
2023-01-19T03:43:16.531Z,359
2023-01-19T03:44:15.956Z,367
2023-01-19T03:45:16.302Z,370
2023-01-19T03:46:15.974Z,380
2023-01-19T03:47:16.097Z,379
2023-01-19T03:48:16.629Z,376
2023-01-19T03:49:16.471Z,371
2023-01-19T03:50:16.290Z,374
2023-01-19T03:51:16.257Z,366
2023-01-19T03:52:16.306Z,364
2023-01-19T03:53:16.552Z,356
2023-01-19T03:54:16.491Z,368
2023-01-19T03:55:16.273Z,364
2023-01-19T03:56:16.568Z,368
2023-01-19T03:57:16.456Z,375
2023-01-19T03:58:16.008Z,379
2023-01-19T03:59:16.090Z,366
2023-01-19T04:00:17.242Z,362
2023-01-19T04:01:16.495Z,362
2023-01-19T04:02:16.616Z,356
2023-01-19T04:03:16.381Z,357
2023-01-19T04:04:16.447Z,359
2023-01-19T04:05:16.601Z,357
2023-01-19T04:06:16.488Z,371
2023-01-19T04:07:16.512Z,370
2023-01-19T04:08:16.416Z,373
2023-01-19T04:09:18.571Z,376
2023-01-19T04:10:16.639Z,382
2023-01-19T04:11:17.058Z,381
2023-01-19T04:12:17.022Z,371
2023-01-19T04:13:16.555Z,368
2023-01-19T04:15:16.774Z,379
2023-01-19T04:16:16.920Z,381
2023-01-19T04:17:16.730Z,378
2023-01-19T04:18:17.082Z,368
2023-01-19T04:19:16.397Z,363
2023-01-19T04:20:16.612Z,366
2023-01-19T04:21:17.066Z,369
2023-01-19T04:22:17.131Z,372
2023-01-19T04:23:16.868Z,371
2023-01-19T04:24:17.048Z,370
2023-01-19T04:25:16.503Z,373
2023-01-19T04:26:16.888Z,366
2023-01-19T04:27:17.222Z,375
2023-01-19T04:28:16.508Z,370
2023-01-19T04:29:16.751Z,364
2023-01-19T04:30:17.070Z,363
2023-01-19T04:31:16.301Z,369
2023-01-19T04:32:16.538Z,370
2023-01-19T04:34:16.289Z,371
2023-01-19T04:36:16.105Z,365
2023-01-19T04:37:16.364Z,371
2023-01-19T04:38:16.148Z,378
2023-01-19T04:39:16.085Z,373
2023-01-19T04:40:16.853Z,366
2023-01-19T04:41:16.408Z,373
2023-01-19T04:42:16.186Z,371
2023-01-19T04:43:16.229Z,364
2023-01-19T04:44:16.164Z,362
2023-01-19T04:45:16.860Z,360
2023-01-19T04:47:16.756Z,369
2023-01-19T04:48:16.414Z,377
2023-01-19T04:49:16.451Z,379
2023-01-19T04:50:16.714Z,367
2023-01-19T04:51:16.402Z,365
2023-01-19T04:52:16.082Z,369
2023-01-19T04:53:16.164Z,367
2023-01-19T04:54:16.514Z,373
2023-01-19T04:55:16.797Z,364
2023-01-19T04:56:16.378Z,359
2023-01-19T04:57:16.575Z,357
2023-01-19T04:58:16.175Z,363
2023-01-19T04:59:16.492Z,364
2023-01-19T05:00:17.242Z,358
2023-01-19T05:01:16.478Z,362
2023-01-19T05:02:16.820Z,365
2023-01-19T05:03:16.832Z,366
2023-01-19T05:04:16.347Z,361
2023-01-19T05:05:16.761Z,362
2023-01-19T05:06:16.411Z,356
2023-01-19T05:07:16.557Z,364
2023-01-19T05:09:16.656Z,369
2023-01-19T05:10:16.659Z,372
2023-01-19T05:11:16.599Z,361
2023-01-19T05:12:16.496Z,354
2023-01-19T05:13:16.562Z,360
2023-01-19T05:14:16.400Z,372
2023-01-19T05:15:16.620Z,369
2023-01-19T05:16:15.528Z,367
2023-01-19T05:17:16.607Z,379
2023-01-19T05:18:16.650Z,382
2023-01-19T05:19:16.303Z,375
2023-01-19T05:20:16.357Z,365
2023-01-19T05:21:16.455Z,360
2023-01-19T05:22:16.364Z,367
2023-01-19T05:23:16.350Z,370
2023-01-19T05:24:16.414Z,364
2023-01-19T05:25:16.400Z,357
2023-01-19T05:26:16.125Z,355
2023-01-19T05:27:16.196Z,358
2023-01-19T05:29:16.659Z,354
2023-01-19T05:30:16.611Z,370
2023-01-19T05:31:18.593Z,367
2023-01-19T05:32:16.859Z,366
2023-01-19T05:33:16.919Z,364
2023-01-19T05:34:16.811Z,365
2023-01-19T05:35:20.191Z,360
2023-01-19T05:36:16.640Z,379
2023-01-19T05:37:16.146Z,372
2023-01-19T05:38:20.856Z,362
2023-01-19T05:40:16.400Z,372
2023-01-19T05:41:16.527Z,365
2023-01-19T05:43:15.679Z,371
2023-01-19T05:44:16.600Z,372
2023-01-19T05:45:16.931Z,368
2023-01-19T05:46:16.795Z,356
2023-01-19T05:47:16.628Z,364
2023-01-19T05:48:16.665Z,376
2023-01-19T05:49:16.301Z,375
2023-01-19T05:50:16.054Z,381
2023-01-19T05:52:16.461Z,377
2023-01-19T05:53:16.227Z,366
2023-01-19T05:54:16.050Z,360
2023-01-19T05:55:16.843Z,350
2023-01-19T05:56:16.614Z,359
2023-01-19T05:57:16.342Z,366
2023-01-19T05:58:16.158Z,360
2023-01-19T05:59:16.367Z,368
2023-01-19T06:00:16.852Z,373
2023-01-19T06:01:21.301Z,369
2023-01-19T06:02:16.260Z,362
2023-01-19T06:03:16.623Z,365
2023-01-19T06:04:16.666Z,377
2023-01-19T06:05:16.775Z,374
2023-01-19T06:06:16.680Z,373
2023-01-19T06:07:16.596Z,363
2023-01-19T06:08:16.666Z,359
2023-01-19T06:09:16.563Z,360
2023-01-19T06:10:16.820Z,377
2023-01-19T06:11:16.268Z,375
2023-01-19T06:12:16.734Z,366
2023-01-19T06:13:16.509Z,360
2023-01-19T06:14:16.367Z,362
2023-01-19T06:15:16.473Z,366
2023-01-19T06:16:16.406Z,364
2023-01-19T06:17:16.652Z,361
2023-01-19T06:18:16.724Z,368
2023-01-19T06:19:16.704Z,370
2023-01-19T06:20:16.919Z,362
2023-01-19T06:21:16.970Z,363
2023-01-19T06:22:16.758Z,378
2023-01-19T06:23:16.664Z,370
2023-01-19T06:24:16.397Z,369
2023-01-19T06:25:16.755Z,360
2023-01-19T06:26:16.530Z,358
2023-01-19T06:27:16.662Z,367
2023-01-19T06:28:16.492Z,370
2023-01-19T06:29:16.621Z,360
2023-01-19T06:30:16.720Z,364
2023-01-19T06:31:31.025Z,363
2023-01-19T06:32:16.577Z,361
2023-01-19T06:33:16.442Z,370
2023-01-19T06:34:16.425Z,375
2023-01-19T06:35:16.437Z,376
2023-01-19T06:36:16.362Z,363
2023-01-19T06:37:16.345Z,365
2023-01-19T06:38:16.276Z,364
2023-01-19T06:39:16.962Z,358
2023-01-19T06:40:16.702Z,359
2023-01-19T06:41:16.841Z,353
2023-01-19T06:42:16.737Z,359
2023-01-19T06:43:16.921Z,365
2023-01-19T06:44:16.876Z,376
2023-01-19T06:45:16.827Z,377
2023-01-19T06:46:16.307Z,376
2023-01-19T06:47:16.648Z,370
2023-01-19T06:48:16.483Z,374
2023-01-19T06:49:16.384Z,364
2023-01-19T06:50:16.600Z,358
2023-01-19T06:52:16.461Z,354
2023-01-19T06:53:16.125Z,351
2023-01-19T06:54:16.536Z,355
2023-01-19T06:55:16.466Z,357
2023-01-19T06:56:16.132Z,366
2023-01-19T06:57:16.406Z,371
2023-01-19T06:58:16.366Z,379
2023-01-19T06:59:16.524Z,375
2023-01-19T07:00:17.094Z,371
2023-01-19T07:01:16.340Z,372
2023-01-19T07:02:27.061Z,369
2023-01-19T07:03:16.509Z,366
2023-01-19T07:04:16.345Z,370
2023-01-19T07:05:16.412Z,373
2023-01-19T07:06:16.304Z,374
2023-01-19T07:07:16.333Z,366
2023-01-19T07:08:16.270Z,367
2023-01-19T07:09:17.090Z,366
2023-01-19T07:10:16.254Z,378
2023-01-19T07:11:26.681Z,372
2023-01-19T07:12:16.581Z,369
2023-01-19T07:13:16.756Z,370
2023-01-19T07:14:16.763Z,379
2023-01-19T07:15:16.763Z,378
2023-01-19T07:16:16.434Z,370
2023-01-19T07:17:16.819Z,358
2023-01-19T07:18:16.527Z,364
2023-01-19T07:19:16.708Z,374
2023-01-19T07:20:16.708Z,366
2023-01-19T07:22:16.366Z,356
2023-01-19T07:23:16.306Z,354
2023-01-19T07:24:15.987Z,368
2023-01-19T07:25:16.921Z,369
2023-01-19T07:26:16.510Z,367
2023-01-19T07:27:16.335Z,359
2023-01-19T07:28:16.499Z,367
2023-01-19T07:29:16.407Z,372
2023-01-19T07:32:16.813Z,375
2023-01-19T07:33:16.818Z,366
2023-01-19T07:34:16.400Z,362
2023-01-19T07:35:16.487Z,359
2023-01-19T07:36:16.030Z,356
2023-01-19T07:37:16.880Z,366
2023-01-19T07:38:16.913Z,368
2023-01-19T07:39:16.777Z,359
2023-01-19T07:40:16.701Z,355
2023-01-19T07:41:16.629Z,362
2023-01-19T07:42:16.131Z,369
2023-01-19T07:43:16.300Z,366
2023-01-19T07:44:16.244Z,368
2023-01-19T07:45:16.318Z,370
2023-01-19T07:46:16.258Z,374
2023-01-19T07:48:16.433Z,372
2023-01-19T07:49:16.539Z,373
2023-01-19T07:50:16.467Z,370
2023-01-19T07:51:16.362Z,374
2023-01-19T07:52:16.491Z,369
2023-01-19T07:53:16.381Z,366
2023-01-19T07:54:16.351Z,369
2023-01-19T07:55:16.503Z,374
2023-01-19T07:56:16.219Z,370
2023-01-19T07:57:16.330Z,367
2023-01-19T07:58:16.426Z,370
2023-01-19T07:59:16.387Z,379
2023-01-19T08:00:17.000Z,367
2023-01-19T08:01:16.493Z,364
2023-01-19T08:02:17.400Z,363
2023-01-19T08:03:16.537Z,371
2023-01-19T08:04:16.148Z,370
2023-01-19T08:05:16.456Z,361
2023-01-19T08:06:16.182Z,360
2023-01-19T08:07:16.441Z,364
2023-01-19T08:08:16.021Z,373
2023-01-19T08:09:16.563Z,365
2023-01-19T08:10:16.273Z,370
2023-01-19T08:11:16.318Z,374
2023-01-19T08:12:16.146Z,386
2023-01-19T08:13:16.442Z,372
2023-01-19T08:14:16.328Z,366
2023-01-19T08:15:16.236Z,372
2023-01-19T08:16:16.451Z,369
2023-01-19T08:17:16.410Z,374
2023-01-19T08:18:16.295Z,373
2023-01-19T08:19:16.428Z,377
2023-01-19T08:21:15.978Z,378
2023-01-19T08:22:16.008Z,375
2023-01-19T08:23:16.460Z,368
2023-01-19T08:24:16.552Z,370
2023-01-19T08:25:16.835Z,374
2023-01-19T08:26:16.676Z,375
2023-01-19T08:27:16.762Z,369
2023-01-19T08:28:16.555Z,364
2023-01-19T08:29:16.943Z,366
2023-01-19T08:30:22.036Z,362
2023-01-19T08:32:16.893Z,366
2023-01-19T08:33:16.509Z,367
2023-01-19T08:34:16.677Z,383
2023-01-19T08:35:16.664Z,386
2023-01-19T08:36:16.458Z,374
2023-01-19T08:37:16.717Z,364
2023-01-19T08:38:16.680Z,367
2023-01-19T08:39:17.345Z,363
2023-01-19T08:40:16.714Z,356
2023-01-19T08:41:17.002Z,357
2023-01-19T08:42:16.911Z,360
2023-01-19T08:43:17.134Z,374
2023-01-19T08:44:16.304Z,388
2023-01-19T08:45:16.668Z,386
2023-01-19T08:46:16.754Z,374
2023-01-19T08:47:16.905Z,366
2023-01-19T08:48:16.381Z,367
2023-01-19T08:49:17.045Z,366
2023-01-19T08:50:17.270Z,361
2023-01-19T08:51:16.839Z,364
2023-01-19T08:52:16.871Z,367
2023-01-19T08:53:17.063Z,360
2023-01-19T08:54:18.366Z,360
2023-01-19T08:55:17.191Z,362
2023-01-19T08:56:16.819Z,364
2023-01-19T08:58:16.433Z,360
2023-01-19T08:59:16.948Z,357
2023-01-19T09:00:16.830Z,359
2023-01-19T09:01:17.268Z,371
2023-01-19T09:02:16.955Z,373
2023-01-19T09:03:16.708Z,372
2023-01-19T09:06:17.126Z,365
2023-01-19T09:07:16.811Z,370
2023-01-19T09:08:17.344Z,368
2023-01-19T09:09:16.975Z,370
2023-01-19T09:10:17.315Z,381
2023-01-19T09:11:17.007Z,374
2023-01-19T09:12:16.833Z,361
2023-01-19T09:13:16.783Z,363
2023-01-19T09:14:17.460Z,356
2023-01-19T09:15:17.083Z,358
2023-01-19T09:16:17.131Z,366
2023-01-19T09:17:16.830Z,369
2023-01-19T09:18:17.138Z,373
2023-01-19T09:19:17.391Z,360
2023-01-19T09:20:16.168Z,365
2023-01-19T09:21:16.733Z,364
2023-01-19T09:22:16.844Z,367
2023-01-19T09:23:17.035Z,363
2023-01-19T09:24:17.007Z,370
2023-01-19T09:26:16.768Z,378
2023-01-19T09:27:17.231Z,363
2023-01-19T09:28:16.700Z,361
2023-01-19T09:29:16.812Z,368
2023-01-19T09:30:17.193Z,367
2023-01-19T09:31:16.949Z,366
2023-01-19T09:32:16.899Z,369
2023-01-19T09:33:16.991Z,371
2023-01-19T09:34:16.674Z,368
2023-01-19T09:35:16.742Z,365
2023-01-19T09:36:16.840Z,373
2023-01-19T09:37:17.306Z,369
2023-01-19T09:38:16.982Z,361
2023-01-19T09:39:17.426Z,355
2023-01-19T09:41:18.928Z,362
2023-01-19T09:42:16.501Z,364
2023-01-19T09:43:16.899Z,367
2023-01-19T09:44:17.015Z,365
2023-01-19T09:45:17.515Z,374
2023-01-19T09:46:16.957Z,375
2023-01-19T09:47:17.259Z,360
2023-01-19T09:48:16.564Z,359
2023-01-19T09:49:16.856Z,361
2023-01-19T09:50:16.579Z,360
2023-01-19T09:54:17.376Z,351
2023-01-19T09:55:17.077Z,344
2023-01-19T09:56:16.743Z,357
2023-01-19T09:57:17.032Z,365
2023-01-19T09:58:16.812Z,367
2023-01-19T09:59:17.012Z,362
2023-01-19T10:00:17.133Z,356
2023-01-19T10:01:16.753Z,362
2023-01-19T10:03:16.538Z,363
2023-01-19T10:04:17.059Z,357
2023-01-19T10:05:17.241Z,364
2023-01-19T10:06:16.915Z,368
2023-01-19T10:07:16.612Z,375
2023-01-19T10:08:16.648Z,381
2023-01-19T10:09:16.625Z,380
2023-01-19T10:10:16.580Z,369
2023-01-19T10:11:16.904Z,365
2023-01-19T10:13:16.937Z,353
2023-01-19T10:14:16.883Z,356
2023-01-19T10:15:17.029Z,369
2023-01-19T10:16:16.721Z,365
2023-01-19T10:17:16.861Z,369
2023-01-19T10:18:17.050Z,361
2023-01-19T10:19:16.356Z,359
2023-01-19T10:20:16.963Z,362
2023-01-19T10:21:16.915Z,359
2023-01-19T10:22:16.491Z,363
2023-01-19T10:23:16.453Z,371
2023-01-19T10:24:16.468Z,372
2023-01-19T10:25:16.937Z,367
2023-01-19T10:26:17.263Z,370
2023-01-19T10:27:16.407Z,366
2023-01-19T10:29:16.618Z,369
2023-01-19T10:30:17.352Z,366
2023-01-19T10:31:17.018Z,358
2023-01-19T10:32:16.662Z,364
2023-01-19T10:33:17.499Z,363
2023-01-19T10:34:19.806Z,364
2023-01-19T10:35:17.060Z,363
2023-01-19T10:36:16.688Z,357
2023-01-19T10:37:17.278Z,364
2023-01-19T10:38:16.512Z,368
2023-01-19T10:39:16.701Z,360
2023-01-19T10:40:17.183Z,368
2023-01-19T10:41:16.584Z,361
2023-01-19T10:42:16.735Z,352
2023-01-19T10:43:17.179Z,362
2023-01-19T10:44:16.688Z,370
2023-01-19T10:45:17.511Z,367
2023-01-19T10:46:16.806Z,369
2023-01-19T10:47:16.588Z,371
2023-01-19T10:48:16.531Z,372
2023-01-19T10:49:17.038Z,365
2023-01-19T10:50:17.220Z,364
2023-01-19T10:51:16.423Z,374
2023-01-19T10:52:18.865Z,373
2023-01-19T10:53:16.741Z,367
2023-01-19T10:54:16.893Z,362
2023-01-19T10:55:17.306Z,375
2023-01-19T10:56:16.722Z,374
2023-01-19T10:57:21.608Z,362
2023-01-19T10:58:18.823Z,368
2023-01-19T10:59:22.037Z,373
2023-01-19T11:00:17.249Z,369
2023-01-19T11:01:24.983Z,362
2023-01-19T11:02:17.089Z,355
2023-01-19T11:03:17.007Z,360
2023-01-19T11:04:16.752Z,359
2023-01-19T11:05:17.260Z,371
2023-01-19T11:06:16.924Z,372
2023-01-19T11:07:17.069Z,358
2023-01-19T11:08:16.207Z,352
2023-01-19T11:09:31.327Z,358
2023-01-19T11:10:16.483Z,365
2023-01-19T11:11:16.632Z,375
2023-01-19T11:12:17.036Z,373
2023-01-19T11:13:31.131Z,372
2023-01-19T11:14:17.055Z,370
2023-01-19T11:15:16.498Z,371
2023-01-19T11:16:16.575Z,365
2023-01-19T11:17:16.891Z,363
2023-01-19T11:18:16.925Z,357
2023-01-19T11:19:16.715Z,363
2023-01-19T11:20:16.791Z,365
2023-01-19T11:21:17.300Z,361
2023-01-19T11:22:17.173Z,360
2023-01-19T11:24:16.722Z,362
2023-01-19T11:25:17.233Z,366
2023-01-19T11:26:16.489Z,359
2023-01-19T11:27:16.739Z,369
2023-01-19T11:28:17.023Z,361
2023-01-19T11:29:16.798Z,363
2023-01-19T11:30:17.167Z,371
2023-01-19T11:31:16.842Z,366
2023-01-19T11:32:16.579Z,372
2023-01-19T11:33:17.225Z,363
2023-01-19T11:34:16.758Z,366
2023-01-19T11:35:17.289Z,369
2023-01-19T11:36:16.815Z,356
2023-01-19T11:37:16.677Z,353
2023-01-19T11:38:17.085Z,355
2023-01-19T11:39:16.883Z,362
2023-01-19T11:40:16.752Z,371
2023-01-19T11:41:16.706Z,358
2023-01-19T11:42:16.951Z,365
2023-01-19T11:44:16.375Z,370
2023-01-19T11:45:16.951Z,366
2023-01-19T11:46:17.489Z,359
2023-01-19T11:47:17.033Z,364
2023-01-19T11:48:16.590Z,361
2023-01-19T11:49:17.134Z,365
2023-01-19T11:50:16.839Z,363
2023-01-19T11:51:16.734Z,365
2023-01-19T11:52:17.182Z,366
2023-01-19T11:53:16.811Z,359
2023-01-19T11:54:17.224Z,349
2023-01-19T11:55:17.160Z,359
2023-01-19T11:56:16.980Z,365
2023-01-19T11:57:17.047Z,362
2023-01-19T11:58:17.111Z,371
2023-01-19T11:59:17.167Z,375
2023-01-19T12:00:17.395Z,364
2023-01-19T12:01:17.053Z,365
2023-01-19T12:02:16.448Z,359
2023-01-19T12:03:17.220Z,352
2023-01-19T12:04:16.807Z,360
2023-01-19T12:05:17.494Z,357
2023-01-19T12:06:16.829Z,352
2023-01-19T12:07:16.993Z,349
2023-01-19T12:08:16.444Z,346
2023-01-19T12:09:16.953Z,349
2023-01-19T12:10:17.398Z,348
2023-01-19T12:11:16.611Z,354
2023-01-19T12:12:17.168Z,348
2023-01-19T12:13:16.704Z,360
2023-01-19T12:14:16.814Z,372
2023-01-19T12:15:16.735Z,365
2023-01-19T12:16:16.914Z,361
2023-01-19T12:17:17.391Z,362
2023-01-19T12:18:16.669Z,360
2023-01-19T12:20:17.348Z,359
2023-01-19T12:21:16.895Z,349
2023-01-19T12:22:17.096Z,350
2023-01-19T12:23:16.847Z,357
2023-01-19T12:24:17.206Z,359
2023-01-19T12:25:17.066Z,356
2023-01-19T12:26:16.682Z,360
2023-01-19T12:27:17.113Z,364
2023-01-19T12:29:16.643Z,367
2023-01-19T12:30:16.759Z,375
2023-01-19T12:31:16.860Z,362
2023-01-19T12:32:16.679Z,372
2023-01-19T12:33:17.249Z,363
2023-01-19T12:34:15.911Z,359
2023-01-19T12:35:16.928Z,358
2023-01-19T12:36:16.569Z,362
2023-01-19T12:37:17.127Z,369
2023-01-19T12:38:16.752Z,363
2023-01-19T12:41:16.775Z,368
2023-01-19T12:42:16.797Z,365
2023-01-19T12:43:17.491Z,364
2023-01-19T12:44:16.740Z,361
2023-01-19T12:47:16.751Z,353
2023-01-19T12:48:16.868Z,355
2023-01-19T12:50:16.941Z,350
2023-01-19T12:51:16.799Z,353
2023-01-19T12:52:16.956Z,359
2023-01-19T12:53:16.591Z,370
2023-01-19T12:54:16.379Z,360
2023-01-19T12:55:17.071Z,364
2023-01-19T12:56:16.522Z,355
2023-01-19T12:57:16.856Z,353
2023-01-19T12:58:16.768Z,370
2023-01-19T12:59:17.001Z,361
2023-01-19T13:00:18.939Z,363
2023-01-19T13:01:17.249Z,361
2023-01-19T13:02:16.844Z,354
2023-01-19T13:03:17.164Z,352
2023-01-19T13:04:16.593Z,367
2023-01-19T13:05:17.033Z,371
2023-01-19T13:06:16.664Z,364
2023-01-19T13:07:16.862Z,352
2023-01-19T13:08:16.773Z,356
2023-01-19T13:10:17.485Z,362
2023-01-19T13:11:16.932Z,357
2023-01-19T13:12:16.605Z,355
2023-01-19T13:13:16.923Z,353
2023-01-19T13:14:16.810Z,354
2023-01-19T13:15:17.438Z,351
2023-01-19T13:16:16.593Z,360
2023-01-19T13:17:16.842Z,355
2023-01-19T13:18:17.265Z,356
2023-01-19T13:19:16.575Z,362
2023-01-19T13:20:17.155Z,353
2023-01-19T13:21:16.645Z,354
2023-01-19T13:22:17.213Z,359
2023-01-19T13:24:17.012Z,353
2023-01-19T13:25:16.778Z,362
2023-01-19T13:26:24.381Z,364
2023-01-19T13:27:16.696Z,353
2023-01-19T13:28:16.694Z,363
2023-01-19T13:29:17.118Z,364
2023-01-19T13:30:16.797Z,360
2023-01-19T13:31:17.200Z,355
2023-01-19T13:32:17.288Z,369
2023-01-19T13:33:17.472Z,357
2023-01-19T13:34:16.614Z,359
2023-01-19T13:35:17.407Z,357
2023-01-19T13:36:16.339Z,361
2023-01-19T13:37:16.383Z,360
2023-01-19T13:38:16.795Z,355
2023-01-19T13:39:18.578Z,366
2023-01-19T13:40:16.946Z,369
2023-01-19T13:41:17.011Z,363
2023-01-19T13:42:16.678Z,370
2023-01-19T13:44:16.784Z,366
2023-01-19T13:45:16.833Z,363
2023-01-19T13:46:17.012Z,359
2023-01-19T13:47:17.638Z,365
2023-01-19T13:48:16.553Z,349
2023-01-19T13:49:16.762Z,353
2023-01-19T13:50:17.043Z,369
2023-01-19T13:51:17.163Z,366
2023-01-19T13:52:16.666Z,362
2023-01-19T13:53:16.821Z,367
2023-01-19T13:54:16.980Z,359
2023-01-19T13:57:17.054Z,357
2023-01-19T13:58:17.164Z,362
2023-01-19T13:59:16.778Z,357
2023-01-19T14:01:16.743Z,365
2023-01-19T14:02:16.885Z,359
2023-01-19T14:03:16.544Z,363
2023-01-19T14:04:17.178Z,362
2023-01-19T14:05:16.654Z,358
2023-01-19T14:06:16.843Z,357
2023-01-19T14:09:16.753Z,361
2023-01-19T14:10:16.862Z,351
2023-01-19T14:12:16.506Z,354
2023-01-19T14:13:16.770Z,360
2023-01-19T14:14:16.870Z,361
2023-01-19T14:15:17.478Z,352
2023-01-19T14:16:16.704Z,336
2023-01-19T14:17:16.964Z,340
2023-01-19T14:18:16.747Z,349
2023-01-19T14:19:16.920Z,357
2023-01-19T14:20:16.763Z,358
2023-01-19T14:21:17.416Z,363
2023-01-19T14:22:17.024Z,359
2023-01-19T14:23:17.255Z,355
2023-01-19T14:24:17.089Z,365
2023-01-19T14:25:16.861Z,373
2023-01-19T14:26:17.104Z,371
2023-01-19T14:27:16.901Z,366
2023-01-19T14:28:17.137Z,367
2023-01-19T14:29:16.720Z,361
2023-01-19T14:30:17.785Z,355
2023-01-19T14:31:17.483Z,367
2023-01-19T14:33:16.853Z,373
2023-01-19T14:34:16.718Z,369
2023-01-19T14:35:17.229Z,365
2023-01-19T14:36:17.983Z,364
2023-01-19T14:38:17.107Z,367
2023-01-19T14:39:17.041Z,364
2023-01-19T14:40:16.400Z,367
2023-01-19T14:41:16.880Z,359
2023-01-19T14:42:17.698Z,368
2023-01-19T14:43:16.761Z,365
2023-01-19T14:44:17.317Z,352
2023-01-19T14:45:17.544Z,348
2023-01-19T14:46:17.461Z,354
2023-01-19T14:47:17.435Z,355
2023-01-19T14:49:16.972Z,357
2023-01-19T14:50:16.628Z,359
2023-01-19T14:51:16.824Z,366
2023-01-19T14:52:17.700Z,373